Belcher, Kentucky
Current Conditions -  °F | °C
As of 9:35 PM on Saturday 20 Dec 2014 (Local Time) from KPBX Reporting Station
Overcast Overcast  
Wind Chill: 33°   Ceiling: 4300
Heat Index: 33°   Visibility: 10mi
Dew Point: 27°   Wind: 3mph
Humidity: 78%   Direction: 360°N
Pressure: 30.24"   Gusts: NA
Location:  37.34°N, 82.37°W
Report Text: KPBX 210235Z AUTO 36003KT 10SM OVC043 01/M03 A3024 RMK AO2 T00051030
Loading
Personal Weather Stations






























Interactive Weather Map New forecast layout! Learn more

10-Day Weather Forecast

Advertisements
Track Severe Weather on mobile